TAF Text Data
IDs:
Format:
Raw Decoded Include METAR

Data at: 0624 UTC 24 Jan 2019

KDDC 240552Z AUTO 28006KT 10SM OVC080 01/M05 A2999 RMK AO2 SLP168 T00111050 10017 21017 400561100 52008

KDDC 240552Z 2406/2506 28006KT P6SM BKN090
  FM241500 01013G24KT P6SM BKN035
  FM241600 02016G27KT P6SM OVC020
  FM242000 01017G27KT P6SM BKN035
  FM242300 01009KT P6SM SCT130